Time;durP1;ratioP1;P1;durP2;ratioP2;P2;SDS_P1;SDS_P2;PMS_P1;PMS_P2;Temp;Humidity;BMP_temperature;BMP_pressure;BME280_temperature;BME280_humidity;BME280_pressure;Samples;Min_cycle;Max_cycle;Signal;HPM_P1;HPM_P2
2023/09/12 00:01:13;;;;;;;13.30;4.95;;;;;;;20.26;57.55;96396.91;6276114;22;20019;-77
2023/09/12 00:03:41;;;;;;;15.43;4.88;;;;;;;20.22;57.81;96395.00;6275080;22;20020;-77
2023/09/12 00:06:09;;;;;;;12.18;4.90;;;;;;;20.20;57.92;96392.59;6275569;22;20019;-77
2023/09/12 00:08:36;;;;;;;13.07;5.07;;;;;;;20.19;57.72;96385.72;6275955;22;20019;-77
2023/09/12 00:11:10;;;;;;;9.10;4.90;;;;;;;20.16;57.97;96391.53;6276237;22;20099;-77
2023/09/12 00:13:40;;;;;;;11.63;4.88;;;;;;;20.17;57.92;96387.81;6275332;22;20019;-78
2023/09/12 00:16:10;;;;;;;8.68;4.60;;;;;;;20.14;57.79;96383.81;6275935;22;20361;-78
2023/09/12 00:18:38;;;;;;;16.42;5.40;;;;;;;20.11;57.70;96386.94;6275700;22;20107;-78
2023/09/12 00:21:06;;;;;;;15.00;4.82;;;;;;;20.09;57.74;96386.38;6275837;22;20023;-77
2023/09/12 00:23:34;;;;;;;16.70;5.43;;;;;;;20.11;57.92;96383.50;6275045;22;20504;-78
2023/09/12 00:26:02;;;;;;;11.63;4.20;;;;;;;20.10;57.65;96381.91;6288519;22;20019;-78
2023/09/12 00:28:29;;;;;;;11.05;4.60;;;;;;;20.07;57.77;96366.50;6278928;22;20019;-77
2023/09/12 00:30:58;;;;;;;11.05;4.82;;;;;;;20.04;57.85;96374.94;6275783;22;20024;-78
2023/09/12 00:33:26;;;;;;;14.80;5.07;;;;;;;20.02;57.98;96375.19;6275098;22;20024;-77
2023/09/12 00:35:54;;;;;;;13.13;4.97;;;;;;;20.02;58.18;96366.47;6275672;22;20020;-78
2023/09/12 00:38:21;;;;;;;13.38;5.18;;;;;;;20.00;58.13;96361.41;6275808;22;20024;-78
2023/09/12 00:40:49;;;;;;;7.43;4.05;;;;;;;19.98;58.22;96358.19;6276187;22;20349;-78
2023/09/12 00:43:16;;;;;;;9.65;4.72;;;;;;;19.96;58.20;96355.81;6275181;22;20043;-78
2023/09/12 00:45:44;;;;;;;13.25;4.47;;;;;;;19.95;58.16;96353.41;6280774;22;20019;-78
2023/09/12 00:48:17;;;;;;;13.85;5.35;;;;;;;19.93;58.21;96353.66;6297044;22;20098;-78
2023/09/12 00:50:47;;;;;;;10.40;4.47;;;;;;;19.92;57.91;96348.63;6289909;22;20024;-77
2023/09/12 00:53:15;;;;;;;11.63;5.00;;;;;;;19.93;57.80;96344.91;6276751;22;20024;-77
2023/09/12 00:55:47;;;;;;;9.82;4.10;;;;;;;19.91;58.06;96336.41;6289861;22;20015;-77
2023/09/12 00:58:15;;;;;;;12.90;5.03;;;;;;;19.93;57.82;96337.75;6279931;22;20090;-77
2023/09/12 01:00:43;;;;;;;11.38;4.43;;;;;;;19.94;57.56;96338.56;6275938;22;20534;-78
2023/09/12 01:03:10;;;;;;;13.15;4.88;;;;;;;19.96;57.55;96344.41;6278632;22;20062;-78
2023/09/12 01:05:42;;;;;;;11.05;4.82;;;;;;;19.95;57.63;96342.81;6276181;22;20020;-77
2023/09/12 01:08:10;;;;;;;14.97;4.80;;;;;;;19.95;57.67;96337.53;6275789;22;20054;-78
2023/09/12 01:10:38;;;;;;;12.45;5.70;;;;;;;19.95;57.74;96348.91;6276104;22;20323;-78
2023/09/12 01:13:06;;;;;;;11.40;4.85;;;;;;;19.95;57.71;96342.81;6275979;22;20023;-78
2023/09/12 01:15:34;;;;;;;9.55;4.45;;;;;;;19.95;57.95;96345.47;6275956;22;20030;-77
2023/09/12 01:18:02;;;;;;;12.40;5.20;;;;;;;19.94;57.89;96343.84;6276122;22;20015;-78
2023/09/12 01:20:33;;;;;;;10.25;4.90;;;;;;;19.91;57.92;96347.00;6276076;22;20020;-78
2023/09/12 01:23:17;;;;;;;6.57;4.15;;;;;;;19.90;58.28;96340.91;6277383;22;20391;-77
2023/09/12 01:26:13;;;;;;;11.30;4.53;;;;;;;19.93;57.95;96350.22;6278261;22;20016;-78
2023/09/12 01:28:45;;;;;;;9.50;4.47;;;;;;;20.01;58.28;96351.63;6287886;22;20331;-77
2023/09/12 01:31:13;;;;;;;15.40;5.30;;;;;;;20.09;57.99;96354.63;6278093;22;20024;-78
2023/09/12 01:33:41;;;;;;;10.02;4.72;;;;;;;20.17;58.11;96356.03;6292161;22;20020;-80
2023/09/12 01:36:11;;;;;;;9.43;5.10;;;;;;;20.25;58.06;96357.44;6283762;22;20511;-78
2023/09/12 01:38:39;;;;;;;11.10;5.50;;;;;;;20.30;57.97;96358.28;6275478;22;20019;-78
2023/09/12 01:41:08;;;;;;;11.45;5.68;;;;;;;20.33;57.64;96372.88;6275817;22;20103;-77
2023/09/12 01:43:39;;;;;;;10.82;4.75;;;;;;;20.33;58.00;96355.16;6275167;22;20499;-77
2023/09/12 01:46:08;;;;;;;11.52;5.82;;;;;;;20.37;58.31;96356.22;6276418;22;20058;-77
2023/09/12 01:48:38;;;;;;;11.82;5.72;;;;;;;20.40;58.32;96354.13;6277621;22;20407;-78
2023/09/12 01:51:07;;;;;;;12.82;6.45;;;;;;;20.38;58.26;96359.69;6277706;22;20081;-77
2023/09/12 01:53:37;;;;;;;8.98;5.25;;;;;;;20.41;58.37;96361.84;6276974;22;20051;-78
2023/09/12 01:56:04;;;;;;;11.10;5.32;;;;;;;20.46;58.34;96364.53;6277887;22;20026;-77
2023/09/12 01:58:32;;;;;;;11.15;5.93;;;;;;;20.49;58.36;96358.75;6277509;22;20023;-78
2023/09/12 02:01:00;;;;;;;13.40;6.03;;;;;;;20.46;57.85;96359.22;6277627;22;20026;-77
2023/09/12 02:03:29;;;;;;;13.77;5.75;;;;;;;20.36;57.73;96357.28;6276674;22;20469;-77
2023/09/12 02:05:57;;;;;;;12.35;5.22;;;;;;;20.27;57.87;96363.28;6277398;22;20082;-78
2023/09/12 02:08:24;;;;;;;13.43;4.95;;;;;;;20.17;57.81;96359.47;6277245;22;20024;-78
2023/09/12 02:10:52;;;;;;;7.07;4.25;;;;;;;20.12;57.93;96362.06;6277313;22;20062;-77
2023/09/12 02:13:19;;;;;;;12.75;5.40;;;;;;;20.12;57.72;96370.03;6276851;22;20019;-77
2023/09/12 02:15:47;;;;;;;7.00;4.38;;;;;;;20.11;57.66;96364.97;6276559;22;20019;-78
2023/09/12 02:18:15;;;;;;;7.28;4.47;;;;;;;20.06;57.67;96365.72;6277297;22;20028;-77
2023/09/12 02:20:45;;;;;;;14.43;4.75;;;;;;;20.02;57.92;96367.25;6277099;22;20069;-77
2023/09/12 02:23:13;;;;;;;8.93;5.15;;;;;;;19.99;57.93;96366.97;6276535;22;20380;-78
2023/09/12 02:25:44;;;;;;;12.73;4.72;;;;;;;19.95;57.97;96362.16;6278695;22;20015;-78
2023/09/12 02:28:12;;;;;;;12.10;4.65;;;;;;;19.96;58.21;96365.59;6247662;22;20027;-79
2023/09/12 02:30:41;;;;;;;9.98;5.13;;;;;;;19.95;57.94;96369.28;6256426;22;20020;-79
2023/09/12 02:33:09;;;;;;;9.82;4.75;;;;;;;19.91;58.17;96362.88;6266462;22;20341;-79
2023/09/12 02:35:39;;;;;;;12.90;5.00;;;;;;;19.87;58.18;96367.06;6264785;22;20048;-79
2023/09/12 02:38:12;;;;;;;9.30;5.28;;;;;;;19.83;58.51;96366.78;6264406;23;20020;-78
2023/09/12 02:40:44;;;;;;;12.00;5.47;;;;;;;19.81;58.36;96362.75;6250116;23;20031;-78
2023/09/12 02:43:17;;;;;;;14.60;4.78;;;;;;;19.76;58.40;96361.63;6247051;23;20024;-79
2023/09/12 02:45:48;;;;;;;9.15;4.80;;;;;;;19.74;58.73;96358.47;6246840;23;20021;-79
2023/09/12 02:48:18;;;;;;;9.13;4.85;;;;;;;19.73;58.83;96364.78;6247124;22;20028;-79
2023/09/12 02:50:47;;;;;;;10.23;5.00;;;;;;;19.72;58.68;96355.25;6246953;23;20461;-79
2023/09/12 02:53:23;;;;;;;11.68;5.70;;;;;;;19.72;58.80;96354.44;6247178;23;20020;-79
2023/09/12 02:55:54;;;;;;;8.45;4.68;;;;;;;19.67;59.00;96357.78;6255679;23;20026;-79
2023/09/12 02:58:23;;;;;;;10.23;4.95;;;;;;;19.63;59.11;96356.69;6252673;23;20504;-78
2023/09/12 03:00:54;;;;;;;13.50;5.43;;;;;;;19.60;59.50;96361.69;6246691;22;20024;-79
2023/09/12 03:03:23;;;;;;;8.13;4.35;;;;;;;19.60;59.63;96356.38;6246608;22;20020;-79
2023/09/12 03:06:00;;;;;;;7.63;4.65;;;;;;;19.64;59.71;96358.31;6246619;22;20016;-79
2023/09/12 03:08:32;;;;;;;13.80;6.18;;;;;;;19.71;59.70;96353.66;6247266;23;20024;-79
2023/09/12 03:11:02;;;;;;;13.30;5.97;;;;;;;19.79;59.76;96356.91;6246782;23;20462;-78
2023/09/12 03:13:34;;;;;;;11.15;5.78;;;;;;;19.86;59.23;96357.53;6246861;22;20087;-79
2023/09/12 03:16:04;;;;;;;18.52;6.03;;;;;;;19.86;59.20;96344.31;6246578;22;20056;-79
2023/09/12 03:18:35;;;;;;;8.18;5.20;;;;;;;19.85;59.29;96347.97;6246653;23;20020;-78
2023/09/12 03:21:07;;;;;;;9.48;5.45;;;;;;;19.81;59.38;96346.88;6246634;23;20032;-79
2023/09/12 03:23:39;;;;;;;9.65;4.78;;;;;;;19.80;59.18;96347.94;6246762;23;20462;-78
2023/09/12 03:26:09;;;;;;;9.93;5.57;;;;;;;19.79;59.54;96344.50;6246405;22;20020;-79
2023/09/12 03:28:41;;;;;;;11.70;5.60;;;;;;;19.78;59.67;96331.50;6246148;23;20457;-78
2023/09/12 03:31:13;;;;;;;;;;;;;;;19.79;59.87;96341.03;6247024;23;20016;-79
2023/09/12 03:33:49;;;;;;;13.10;6.60;;;;;;;19.81;59.46;96331.00;6246508;23;19987;-79
2023/09/12 03:36:19;;;;;;;11.57;6.50;;;;;;;19.82;59.56;96332.63;6246504;23;20484;-78
2023/09/12 03:38:50;;;;;;;12.77;5.35;;;;;;;19.80;59.64;96332.84;6246454;23;20019;-79
2023/09/12 03:41:22;;;;;;;7.55;4.80;;;;;;;19.75;59.55;96328.28;6246248;23;20465;-79
2023/09/12 03:43:53;;;;;;;14.55;5.22;;;;;;;19.69;59.61;96329.28;6245522;23;20103;-79
2023/09/12 03:46:23;;;;;;;9.17;5.27;;;;;;;19.64;59.95;96331.84;6259673;23;20038;-79
2023/09/12 03:48:52;;;;;;;10.90;5.65;;;;;;;19.58;60.18;96332.03;6267183;22;20218;-79
2023/09/12 03:51:21;;;;;;;8.32;5.03;;;;;;;19.51;60.42;96326.91;6254418;22;20020;-79
2023/09/12 03:53:55;;;;;;;7.80;5.32;;;;;;;19.50;60.97;96320.00;6247188;23;20023;-78
2023/09/12 03:56:25;;;;;;;9.93;5.38;;;;;;;19.49;61.04;96319.22;6247159;23;20020;-79
2023/09/12 03:58:57;;;;;;;9.07;5.43;;;;;;;19.49;61.26;96321.06;6246603;22;20032;-79
2023/09/12 04:01:27;;;;;;;11.95;5.93;;;;;;;19.50;61.14;96320.00;6246667;23;20030;-79
2023/09/12 04:03:57;;;;;;;12.68;6.40;;;;;;;19.50;61.19;96320.84;6246288;23;20026;-78
2023/09/12 04:06:30;;;;;;;12.45;5.38;;;;;;;19.50;60.77;96320.00;6246363;23;20472;-78
2023/09/12 04:09:01;;;;;;;13.23;5.38;;;;;;;19.49;61.18;96323.72;6246720;22;20047;-79
2023/09/12 04:11:33;;;;;;;13.70;5.40;;;;;;;19.49;61.39;96323.72;6246427;23;20023;-78
2023/09/12 04:14:16;;;;;;;12.35;5.25;;;;;;;19.52;61.52;96323.22;6246141;23;20032;-78
2023/09/12 04:16:45;;;;;;;13.65;6.45;;;;;;;19.55;61.19;96315.59;6220765;23;20397;-79
2023/09/12 04:19:15;;;;;;;9.88;5.78;;;;;;;19.58;61.20;96316.94;6246363;22;20480;-79
2023/09/12 04:21:45;;;;;;;10.80;6.32;;;;;;;19.61;61.27;96316.44;6245763;23;20026;-79
2023/09/12 04:24:18;;;;;;;12.40;6.13;;;;;;;19.66;61.20;96316.53;6245736;23;20074;-79
2023/09/12 04:26:49;;;;;;;11.88;6.50;;;;;;;19.66;61.04;96321.81;6245940;22;20110;-79
2023/09/12 04:29:18;;;;;;;11.02;5.75;;;;;;;19.68;60.96;96322.38;6246135;22;20028;-78
2023/09/12 04:31:48;;;;;;;13.50;6.45;;;;;;;19.71;60.99;96324.53;6246273;22;20145;-79
2023/09/12 04:34:17;;;;;;;11.25;6.47;;;;;;;19.70;60.76;96328.25;6245887;22;20469;-79
2023/09/12 04:36:49;;;;;;;11.30;6.68;;;;;;;19.72;61.15;96328.81;6246066;23;20024;-79
2023/09/12 04:39:20;;;;;;;10.07;6.45;;;;;;;19.73;61.17;96325.09;6246014;22;20020;-79
2023/09/12 04:41:54;;;;;;;13.65;6.38;;;;;;;19.74;61.08;96320.59;6247943;23;20020;-80
2023/09/12 04:44:25;;;;;;;14.35;6.85;;;;;;;19.77;61.59;96325.41;6247332;23;20054;-79
2023/09/12 04:47:01;;;;;;;10.60;6.43;;;;;;;19.81;60.87;96333.63;6248461;23;20068;-79
2023/09/12 04:49:39;;;;;;;12.98;6.07;;;;;;;19.84;61.73;96330.53;6246175;23;20020;-80
2023/09/12 04:52:11;;;;;;;14.40;6.68;;;;;;;19.90;61.39;96332.19;6246120;23;20358;-79
2023/09/12 04:54:53;;;;;;;13.77;6.88;;;;;;;19.92;61.03;96330.88;6245853;23;20020;-79
2023/09/12 04:57:26;;;;;;;12.85;5.82;;;;;;;19.94;61.21;96335.91;6245298;23;20016;-79
2023/09/12 04:59:58;;;;;;;12.23;6.50;;;;;;;19.99;61.04;96335.19;6219253;23;20099;-80
2023/09/12 05:02:30;;;;;;;16.35;7.10;;;;;;;19.98;60.58;96342.31;6244955;23;20047;-79
2023/09/12 05:05:08;;;;;;;16.92;6.97;;;;;;;20.01;61.16;96331.25;6246152;23;20012;-79
2023/09/12 05:07:39;;;;;;;16.10;7.25;;;;;;;20.06;60.81;96333.94;6246602;23;20013;-79
2023/09/12 05:10:13;;;;;;;14.35;6.70;;;;;;;20.08;60.36;96334.50;6253209;23;20020;-79
2023/09/12 05:12:46;;;;;;;15.13;6.65;;;;;;;20.09;60.88;96332.63;6254111;23;20024;-80
2023/09/12 05:15:18;;;;;;;19.00;6.40;;;;;;;20.07;60.18;96340.84;6245975;23;20028;-79
2023/09/12 05:17:50;;;;;;;17.02;7.40;;;;;;;20.00;60.31;96334.94;6220255;23;20261;-79
2023/09/12 05:20:25;;;;;;;12.77;6.80;;;;;;;19.99;60.77;96335.19;6249585;23;20020;-80
2023/09/12 05:22:56;;;;;;;13.88;6.90;;;;;;;20.00;60.46;96336.78;6253821;23;20020;-79
2023/09/12 05:25:34;;;;;;;14.00;6.40;;;;;;;19.97;60.44;96335.44;6263499;23;20039;-79
2023/09/12 05:28:17;;;;;;;15.52;6.72;;;;;;;20.00;60.75;96337.56;6262099;23;20020;-79
2023/09/12 05:31:01;;;;;;;13.95;6.85;;;;;;;20.07;61.02;96340.84;6248677;23;20020;-79
2023/09/12 05:33:34;;;;;;;17.58;6.55;;;;;;;20.08;60.61;96342.44;6247672;23;20031;-80
2023/09/12 05:36:11;;;;;;;9.73;6.05;;;;;;;20.12;60.28;96337.44;6247303;23;20027;-80
2023/09/12 05:38:46;;;;;;;12.68;6.90;;;;;;;20.13;60.56;96339.84;6222757;23;20532;-79
2023/09/12 05:41:20;;;;;;;13.65;6.15;;;;;;;20.15;60.46;96337.72;6248313;23;20028;-79
2023/09/12 05:43:55;;;;;;;12.60;6.28;;;;;;;20.17;60.45;96325.03;6221580;23;20028;-79
2023/09/12 05:46:28;;;;;;;23.20;7.65;;;;;;;20.19;60.36;96331.97;6221220;23;20024;-80
2023/09/12 05:49:08;;;;;;;13.27;6.13;;;;;;;20.20;60.49;96336.19;6222734;23;20363;-80
2023/09/12 05:51:40;;;;;;;16.90;7.68;;;;;;;20.23;60.91;96333.84;6247565;23;20035;-79
2023/09/12 05:54:20;;;;;;;11.00;6.38;;;;;;;20.27;60.50;96331.50;6246031;23;20024;-79
2023/09/12 05:56:58;;;;;;;15.73;6.03;;;;;;;20.29;60.32;96332.03;6221804;23;20035;-79
2023/09/12 05:59:33;;;;;;;16.98;6.70;;;;;;;20.27;60.23;96334.13;6247771;23;20094;-79
2023/09/12 06:02:06;;;;;;;11.10;5.80;;;;;;;20.28;60.43;96343.69;6236937;23;20020;-79
2023/09/12 06:04:37;;;;;;;12.77;5.80;;;;;;;20.31;60.42;96344.00;6247833;23;20020;-80
2023/09/12 06:07:14;;;;;;;15.48;6.35;;;;;;;20.33;60.22;96339.25;6246814;23;20027;-79
2023/09/12 06:09:49;;;;;;;10.52;5.78;;;;;;;20.39;60.21;96337.44;6222189;23;20074;-79
2023/09/12 06:12:26;;;;;;;11.00;6.40;;;;;;;20.46;60.25;96337.25;6247620;23;20024;-80
2023/09/12 06:15:04;;;;;;;10.68;5.85;;;;;;;20.51;59.99;96340.75;6222195;23;20031;-79
2023/09/12 06:17:42;;;;;;;10.40;5.88;;;;;;;20.57;60.04;96346.91;6247310;23;20024;-80
2023/09/12 06:20:27;;;;;;;15.60;6.88;;;;;;;20.64;59.62;96338.75;6247886;23;20516;-79
2023/09/12 06:23:08;;;;;;;13.23;6.32;;;;;;;20.69;59.57;96336.97;6224926;23;20362;-79
2023/09/12 06:25:53;;;;;;;12.52;5.68;;;;;;;20.74;59.45;96339.63;6247368;22;20028;-80
2023/09/12 06:28:34;;;;;;;15.25;6.05;;;;;;;20.84;59.45;96343.41;6245179;23;20062;-79
2023/09/12 06:31:11;;;;;;;15.37;5.93;;;;;;;20.92;59.05;96346.41;6241311;23;20030;-80
2023/09/12 06:33:51;;;;;;;11.55;6.60;;;;;;;21.01;59.14;96343.28;6247778;23;20453;-79
2023/09/12 06:36:25;;;;;;;15.43;6.63;;;;;;;21.10;58.71;96347.06;6222017;23;20024;-79
2023/09/12 06:39:00;;;;;;;10.45;6.32;;;;;;;21.19;58.66;96345.56;6248470;23;20020;-78
2023/09/12 06:41:33;;;;;;;9.38;6.13;;;;;;;21.29;58.75;96350.91;6248238;23;20081;-79
2023/09/12 06:44:15;;;;;;;14.50;6.35;;;;;;;21.44;58.60;96352.09;6247706;23;20102;-79
2023/09/12 06:46:52;;;;;;;13.80;6.50;;;;;;;21.61;58.25;96350.06;6271465;23;20012;-79
2023/09/12 06:52:28;;;;;;;9.68;5.82;;;;;;;21.92;58.01;96347.53;6246660;22;20024;-79
2023/09/12 06:55:00;;;;;;;19.00;6.85;;;;;;;22.08;57.53;96353.69;6248347;23;20031;-79
2023/09/12 06:57:43;;;;;;;7.95;5.75;;;;;;;22.22;57.70;96354.84;6248466;23;20075;-79
2023/09/12 07:00:19;;;;;;;15.82;5.88;;;;;;;22.41;57.29;96355.13;6248786;23;20091;-79
2023/09/12 07:03:01;;;;;;;10.48;5.55;;;;;;;22.61;56.95;96355.16;6249098;23;20095;-79
2023/09/12 07:05:49;;;;;;;17.10;6.85;;;;;;;22.87;56.81;96360.50;6253730;23;20020;-79
2023/09/12 07:08:30;;;;;;;9.98;6.05;;;;;;;23.08;56.12;96368.50;6257413;23;20026;-79
2023/09/12 07:11:13;;;;;;;11.95;5.93;;;;;;;23.31;55.54;96367.13;6263061;23;20020;-79
2023/09/12 07:13:52;;;;;;;8.05;6.35;;;;;;;23.55;55.34;96362.03;6247987;23;20020;-79
2023/09/12 07:16:25;;;;;;;8.45;6.10;;;;;;;23.78;54.46;96361.47;6251360;22;20020;-79
2023/09/12 07:19:10;;;;;;;10.07;6.30;;;;;;;23.99;54.20;96358.72;6249673;23;20020;-79
2023/09/12 07:21:40;;;;;;;11.57;6.13;;;;;;;24.14;53.65;96358.66;6248772;23;20027;-79
2023/09/12 07:24:09;;;;;;;13.15;5.75;;;;;;;24.24;53.59;96360.47;6257515;23;20026;-79
2023/09/12 07:26:37;;;;;;;12.73;6.57;;;;;;;24.31;53.21;96363.59;6271264;22;20016;-79
2023/09/12 07:29:07;;;;;;;8.98;6.22;;;;;;;24.38;53.28;96357.97;6271591;22;20351;-79
2023/09/12 07:31:36;;;;;;;14.40;6.72;;;;;;;24.51;52.77;96368.06;6229625;23;20020;-79
2023/09/12 07:34:04;;;;;;;11.23;6.05;;;;;;;24.62;52.67;96364.28;6247876;23;20016;-79
2023/09/12 07:36:36;;;;;;;10.98;7.28;;;;;;;24.77;52.39;96362.53;6249881;23;20016;-80
2023/09/12 07:39:04;;;;;;;9.45;6.47;;;;;;;24.82;52.16;96362.53;6246818;22;20043;-80
2023/09/12 07:41:32;;;;;;;10.20;7.05;;;;;;;24.88;52.37;96362.22;6247186;22;20066;-81
2023/09/12 07:44:01;;;;;;;11.32;6.40;;;;;;;24.97;52.07;96365.06;6246472;22;20458;-80
2023/09/12 07:46:28;;;;;;;9.00;6.15;;;;;;;25.08;51.92;96361.25;6246834;22;20027;-80
2023/09/12 07:48:58;;;;;;;10.25;5.85;;;;;;;25.24;51.96;96371.81;6246573;22;20111;-80
2023/09/12 07:51:26;;;;;;;12.98;6.22;;;;;;;25.49;51.87;96374.25;6246760;22;20016;-80
2023/09/12 07:53:53;;;;;;;10.80;6.13;;;;;;;25.75;51.06;96378.50;6245180;23;20052;-80
2023/09/12 07:56:21;;;;;;;9.10;6.32;;;;;;;25.96;50.11;96377.22;6246349;22;20016;-80
2023/09/12 07:58:49;;;;;;;8.80;5.72;;;;;;;26.14;49.81;96381.00;6246380;22;20074;-80
2023/09/12 08:01:17;;;;;;;12.38;6.18;;;;;;;26.35;49.39;96375.38;6246437;22;20271;-80
2023/09/12 08:03:44;;;;;;;9.85;5.45;;;;;;;26.52;48.80;96383.69;6246973;23;20349;-80
2023/09/12 08:06:14;;;;;;;13.02;6.50;;;;;;;26.72;49.18;96379.97;6247012;23;20020;-81
2023/09/12 08:08:42;;;;;;;12.15;6.22;;;;;;;26.96;49.01;96395.94;6247032;22;20029;-80
2023/09/12 08:11:12;;;;;;;13.10;6.28;;;;;;;27.20;48.24;96384.28;6247985;23;20047;-80
2023/09/12 08:13:39;;;;;;;7.03;5.70;;;;;;;27.41;47.34;96396.25;6247329;22;20461;-81
2023/09/12 08:16:08;;;;;;;12.65;6.18;;;;;;;27.56;47.11;96392.53;6247682;23;20028;-80
2023/09/12 08:18:36;;;;;;;11.98;6.35;;;;;;;27.83;47.03;96394.41;6247600;22;20348;-80
2023/09/12 08:21:03;;;;;;;7.55;5.90;;;;;;;28.15;46.42;96390.84;6247231;23;20027;-81
2023/09/12 08:23:32;;;;;;;9.90;6.15;;;;;;;28.43;45.52;96393.50;6246499;23;20469;-82
2023/09/12 08:26:00;;;;;;;9.13;5.70;;;;;;;28.69;45.20;96393.75;6246587;22;20531;-80
2023/09/12 08:28:28;;;;;;;7.65;5.97;;;;;;;29.14;44.01;96388.41;6247324;23;20016;-81
2023/09/12 08:30:55;;;;;;;11.63;6.75;;;;;;;29.97;42.50;96389.78;6247628;22;20020;-80
2023/09/12 08:33:23;;;;;;;10.02;6.50;;;;;;;30.93;40.33;96393.41;6246887;22;20668;-80
2023/09/12 08:36:07;;;;;;;11.00;7.43;;;;;;;31.69;38.52;96397.41;6247574;23;20020;-80
2023/09/12 08:38:36;;;;;;;8.38;6.45;;;;;;;32.26;37.19;96390.78;6247408;23;20024;-80
2023/09/12 08:41:04;;;;;;;6.95;6.25;;;;;;;32.95;36.26;96392.22;6246699;23;20024;-81
2023/09/12 08:43:32;;;;;;;9.52;6.18;;;;;;;33.67;34.88;96391.19;6247108;23;20052;-81
2023/09/12 08:45:59;;;;;;;8.98;6.90;;;;;;;34.41;33.86;96395.47;6247430;23;20024;-81
2023/09/12 08:48:29;;;;;;;8.82;6.95;;;;;;;35.10;32.04;96400.16;6247625;22;20083;-80
2023/09/12 08:50:57;;;;;;;9.85;5.97;;;;;;;35.78;31.65;96400.00;6247348;22;20082;-81
2023/09/12 08:53:25;;;;;;;9.52;6.43;;;;;;;36.36;30.83;96393.97;6246532;23;20074;-81
2023/09/12 08:55:54;;;;;;;6.95;6.18;;;;;;;36.96;29.65;96385.53;6247226;23;20099;-81
2023/09/12 08:58:23;;;;;;;6.70;5.38;;;;;;;37.57;28.35;96392.13;6247846;22;20035;-81
2023/09/12 09:00:52;;;;;;;9.90;5.03;;;;;;;38.12;27.92;96389.91;6248985;23;20028;-81
2023/09/12 09:03:22;;;;;;;7.43;5.18;;;;;;;38.59;27.29;96387.06;6246937;23;20020;-81
2023/09/12 09:05:52;;;;;;;10.52;5.78;;;;;;;39.02;26.83;96388.38;6248558;23;20024;-80
2023/09/12 09:08:21;;;;;;;10.95;5.55;;;;;;;39.41;25.85;96384.53;6250611;23;20047;-81
2023/09/12 09:11:02;;;;;;;9.05;5.72;;;;;;;39.72;25.62;96389.47;6252634;23;20031;-80
2023/09/12 09:13:30;;;;;;;7.20;5.88;;;;;;;40.00;25.59;96382.69;6252597;23;20024;-80
2023/09/12 09:16:11;;;;;;;7.22;5.75;;;;;;;39.77;25.77;96385.59;6251379;22;20364;-80
2023/09/12 09:18:55;;;;;;;7.47;6.00;;;;;;;39.38;26.52;96385.22;6250798;23;20091;-81
2023/09/12 09:21:25;;;;;;;5.75;5.18;;;;;;;39.11;26.43;96385.38;6250700;22;20048;-80
2023/09/12 09:23:53;;;;;;;6.25;5.65;;;;;;;38.65;27.07;96382.88;6249682;22;20470;-80
2023/09/12 09:26:23;;;;;;;6.50;5.03;;;;;;;38.09;26.75;96379.75;6249568;22;20406;-81
2023/09/12 09:29:04;;;;;;;6.43;5.00;;;;;;;37.53;27.86;96373.00;6249909;23;20477;-80
2023/09/12 09:31:33;;;;;;;5.20;4.72;;;;;;;37.34;28.77;96377.72;6250379;23;20126;-80
2023/09/12 09:34:01;;;;;;;6.47;4.75;;;;;;;37.23;29.00;96377.50;6249409;23;20178;-80
2023/09/12 09:36:29;;;;;;;6.78;5.10;;;;;;;37.14;29.45;96364.16;6249722;23;20531;-80
2023/09/12 09:38:59;;;;;;;5.53;5.03;;;;;;;37.12;28.56;96371.88;6252286;22;20070;-80
2023/09/12 09:41:28;;;;;;;6.10;5.47;;;;;;;37.31;28.74;96369.13;6254207;23;20028;-81
2023/09/12 09:43:56;;;;;;;6.47;5.07;;;;;;;37.63;28.11;96366.19;6262459;22;20052;-80
2023/09/12 09:46:23;;;;;;;5.53;5.00;;;;;;;38.23;27.70;96370.22;6266589;23;20024;-80
2023/09/12 09:48:52;;;;;;;5.78;5.07;;;;;;;38.96;26.21;96368.06;6253314;22;20115;-81
2023/09/12 09:51:20;;;;;;;5.00;4.50;;;;;;;39.70;25.39;96378.13;6251074;23;20044;-80
2023/09/12 09:53:52;;;;;;;4.95;4.55;;;;;;;40.36;24.08;96382.91;6250408;23;20024;-80
2023/09/12 09:56:20;;;;;;;7.13;4.55;;;;;;;40.88;23.81;96372.63;6250121;23;20400;-80
2023/09/12 09:58:49;;;;;;;5.05;4.55;;;;;;;41.23;23.81;96367.66;6250290;22;20070;-80
2023/09/12 10:01:20;;;;;;;5.82;5.32;;;;;;;41.52;23.02;96368.47;6249527;22;20062;-80
2023/09/12 10:03:48;;;;;;;6.30;4.50;;;;;;;41.72;22.35;96361.47;6249471;23;20073;-80
2023/09/12 10:06:17;;;;;;;6.72;4.68;;;;;;;41.87;21.81;96364.19;6249991;22;20020;-80
2023/09/12 10:08:47;;;;;;;5.00;4.43;;;;;;;42.12;21.55;96362.22;6249740;22;20024;-80
2023/09/12 10:11:16;;;;;;;5.28;4.88;;;;;;;42.50;21.49;96364.50;6249647;23;20020;-80
2023/09/12 10:13:50;;;;;;;6.07;4.82;;;;;;;42.83;19.89;96351.44;6248637;23;20031;-80
2023/09/12 10:16:21;;;;;;;6.28;4.43;;;;;;;42.89;20.49;96353.38;6249528;23;20024;-80
2023/09/12 10:18:59;;;;;;;6.63;4.60;;;;;;;42.83;19.74;96351.44;6248911;23;20035;-81
2023/09/12 10:21:31;;;;;;;7.53;5.00;;;;;;;42.64;20.44;96358.16;6249309;23;20028;-80
2023/09/12 10:24:00;;;;;;;19.15;5.35;;;;;;;42.59;21.07;96351.91;6249065;23;20034;-81
2023/09/12 10:26:29;;;;;;;6.65;5.03;;;;;;;42.50;21.20;96348.03;6248587;23;20108;-81
2023/09/12 10:29:00;;;;;;;7.22;4.65;;;;;;;42.24;21.28;96349.28;6248412;22;20024;-81
2023/09/12 10:31:29;;;;;;;8.10;6.00;;;;;;;42.00;21.44;96343.44;6248608;23;20031;-80
2023/09/12 10:33:59;;;;;;;5.32;4.82;;;;;;;41.76;22.02;96339.53;6248823;23;20031;-80
2023/09/12 10:36:27;;;;;;;6.22;5.32;;;;;;;41.53;22.39;96339.94;6248632;23;20596;-81
2023/09/12 10:38:56;;;;;;;5.45;4.55;;;;;;;41.21;22.13;96339.91;6248758;23;20028;-81
2023/09/12 10:41:25;;;;;;;5.55;4.75;;;;;;;40.70;23.42;96337.00;6247993;23;20492;-81
2023/09/12 10:43:54;;;;;;;5.57;5.05;;;;;;;40.26;23.95;96337.19;6247937;22;20028;-80
2023/09/12 10:46:23;;;;;;;6.13;5.32;;;;;;;39.94;24.36;96329.56;6248186;23;20462;-81
2023/09/12 10:48:53;;;;;;;5.30;4.65;;;;;;;39.67;24.51;96331.72;6248337;22;20024;-80
2023/09/12 10:51:21;;;;;;;5.78;5.13;;;;;;;39.47;24.41;96323.75;6248422;22;20148;-81
2023/09/12 10:53:50;;;;;;;5.28;4.78;;;;;;;39.23;25.33;96327.00;6247229;23;20461;-81
2023/09/12 10:56:20;;;;;;;5.72;5.10;;;;;;;39.16;25.24;96327.72;6248419;22;20107;-80
2023/09/12 10:59:10;;;;;;;7.95;5.30;;;;;;;38.92;25.69;96313.47;6248167;23;20095;-80
2023/09/12 11:01:39;;;;;;;8.63;5.20;;;;;;;38.77;25.11;96319.94;6248071;22;20031;-80
2023/09/12 11:04:34;;;;;;;5.68;5.18;;;;;;;38.64;24.99;96318.59;6246801;23;20027;-80
2023/09/12 11:07:02;;;;;;;5.18;4.70;;;;;;;38.50;26.16;96311.03;6247507;23;20450;-81
2023/09/12 11:09:30;;;;;;;7.82;4.68;;;;;;;38.43;25.43;96317.16;6247139;23;20054;-81
2023/09/12 11:12:02;;;;;;;5.18;4.68;;;;;;;38.32;26.25;96316.25;6247751;23;20024;-81
2023/09/12 11:14:30;;;;;;;8.30;5.10;;;;;;;38.19;26.41;96312.19;6248685;23;20020;-81
2023/09/12 11:17:24;;;;;;;5.88;5.28;;;;;;;38.09;25.80;96308.97;6248234;23;20016;-81
2023/09/12 11:19:53;;;;;;;5.88;4.90;;;;;;;38.02;26.61;96303.41;6247347;23;20081;-81
2023/09/12 11:22:23;;;;;;;6.47;4.82;;;;;;;37.89;26.01;96310.19;6247780;22;20134;-80
2023/09/12 11:24:51;;;;;;;6.50;5.13;;;;;;;37.73;26.48;96308.41;6247967;22;20031;-81
2023/09/12 11:27:19;;;;;;;8.35;5.10;;;;;;;37.55;25.87;96309.28;6247784;22;20470;-80
2023/09/12 11:29:47;;;;;;;10.98;5.50;;;;;;;37.37;26.46;96306.25;6247639;22;20024;-81
2023/09/12 11:32:27;;;;;;;6.40;5.05;;;;;;;37.08;26.29;96305.75;6246962;23;20152;-80
2023/09/12 11:34:56;;;;;;;6.72;5.40;;;;;;;36.91;26.98;96313.22;6248140;23;20356;-80
2023/09/12 11:37:25;;;;;;;6.65;4.75;;;;;;;36.78;26.89;96314.53;6247654;22;20072;-80
2023/09/12 11:39:54;;;;;;;5.65;5.03;;;;;;;36.64;27.16;96308.81;6247245;22;20074;-81
2023/09/12 11:42:25;;;;;;;5.43;4.65;;;;;;;36.55;27.85;96306.28;6251522;22;20046;-81
2023/09/12 11:44:53;;;;;;;8.43;5.10;;;;;;;36.56;27.71;96304.34;6251540;23;20465;-81
2023/09/12 11:47:21;;;;;;;7.13;4.85;;;;;;;36.54;27.14;96304.72;6250490;23;20453;-80
2023/09/12 11:49:50;;;;;;;5.57;4.88;;;;;;;36.44;25.94;96308.00;6250036;22;20027;-81
2023/09/12 11:52:19;;;;;;;5.25;4.53;;;;;;;36.30;25.54;96300.38;6249080;23;20024;-81